Time;durP1;ratioP1;P1;durP2;ratioP2;P2;SDS_P1;SDS_P2;PMS_P1;PMS_P2;Temp;Humidity;BMP_temperature;BMP_pressure;BME280_temperature;BME280_humidity;BME280_pressure;Samples;Min_cycle;Max_cycle;Signal;HPM_P1;HPM_P2
2024/02/25 00:00:30;;;;;;;6.30;3.53;;;16.20;87.60;;;;;;5073161;28;20028;-45
2024/02/25 00:02:55;;;;;;;5.13;3.35;;;16.20;87.60;;;;;;5072805;28;20036;-45
2024/02/25 00:05:21;;;;;;;4.43;3.05;;;16.20;87.60;;;;;;5071483;28;20032;-45
2024/02/25 00:07:47;;;;;;;5.13;3.20;;;16.10;87.60;;;;;;5072731;28;20012;-45
2024/02/25 00:10:13;;;;;;;5.68;3.42;;;16.20;87.60;;;;;;5072471;28;20028;-43
2024/02/25 00:12:38;;;;;;;4.75;2.92;;;16.10;87.60;;;;;;5072778;28;20027;-43
2024/02/25 00:15:05;;;;;;;5.18;3.00;;;16.10;87.60;;;;;;5072764;28;20016;-40
2024/02/25 00:17:30;;;;;;;4.10;2.65;;;16.20;87.60;;;;;;5072499;28;20298;-41
2024/02/25 00:19:56;;;;;;;4.10;3.03;;;16.10;87.60;;;;;;5072407;28;20032;-43
2024/02/25 00:22:23;;;;;;;4.35;3.10;;;16.10;87.60;;;;;;5072574;28;20036;-43
2024/02/25 00:24:49;;;;;;;4.30;2.63;;;16.10;87.60;;;;;;5072690;28;20024;-44
2024/02/25 00:27:15;;;;;;;3.97;2.80;;;16.10;87.60;;;;;;5072065;28;20444;-43
2024/02/25 00:29:41;;;;;;;5.60;2.90;;;16.10;87.60;;;;;;5072427;28;20510;-44
2024/02/25 00:32:07;;;;;;;4.38;2.97;;;16.10;87.50;;;;;;5072668;28;20158;-44
2024/02/25 00:34:33;;;;;;;3.78;2.60;;;16.10;87.60;;;;;;5072425;28;20012;-43
2024/02/25 00:36:59;;;;;;;5.15;2.72;;;16.10;87.50;;;;;;5072210;28;20376;-43
2024/02/25 00:39:24;;;;;;;4.75;2.90;;;16.10;87.60;;;;;;5071934;28;20028;-44
2024/02/25 00:41:52;;;;;;;4.80;2.80;;;16.10;87.50;;;;;;5072086;28;20024;-43
2024/02/25 00:44:18;;;;;;;3.80;2.42;;;16.10;87.40;;;;;;5072001;28;20108;-44
2024/02/25 00:46:46;;;;;;;5.13;2.72;;;16.10;87.40;;;;;;5071729;28;20020;-44
2024/02/25 00:49:12;;;;;;;3.97;2.47;;;16.10;87.50;;;;;;5071699;28;20028;-42
2024/02/25 00:51:39;;;;;;;4.43;2.90;;;16.10;87.40;;;;;;5071684;28;20473;-44
2024/02/25 00:54:05;;;;;;;4.53;2.65;;;16.10;87.40;;;;;;5071899;28;20095;-45
2024/02/25 00:56:31;;;;;;;3.92;2.42;;;16.00;87.40;;;;;;5071696;28;20115;-44
2024/02/25 00:58:56;;;;;;;4.30;2.67;;;16.10;87.50;;;;;;5071163;28;20383;-42
2024/02/25 01:01:22;;;;;;;3.95;2.70;;;16.00;87.40;;;;;;5071783;28;20081;-38
2024/02/25 01:03:47;;;;;;;4.57;2.70;;;16.10;87.50;;;;;;5072172;28;20040;-40
2024/02/25 01:06:13;;;;;;;3.90;2.50;;;16.10;87.50;;;;;;5071686;28;20028;-40
2024/02/25 01:08:39;;;;;;;4.45;2.53;;;16.00;87.40;;;;;;5071605;28;20031;-41
2024/02/25 01:11:08;;;;;;;3.95;2.35;;;16.10;87.50;;;;;;5071156;28;20029;-41
2024/02/25 01:13:35;;;;;;;3.88;2.58;;;16.00;87.40;;;;;;5071467;28;20086;-44
2024/02/25 01:16:04;;;;;;;5.90;2.75;;;16.10;87.40;;;;;;5071380;28;20055;-44
2024/02/25 01:18:30;;;;;;;3.33;2.40;;;16.10;87.30;;;;;;5071264;28;20052;-44
2024/02/25 01:20:56;;;;;;;3.75;2.10;;;16.00;87.20;;;;;;5070459;28;20029;-44
2024/02/25 01:23:22;;;;;;;4.05;2.70;;;16.10;87.20;;;;;;5071245;28;20081;-44
2024/02/25 01:25:47;;;;;;;4.30;2.50;;;16.10;87.20;;;;;;5071146;28;20029;-44
2024/02/25 01:28:13;;;;;;;3.80;2.33;;;16.00;87.00;;;;;;5070893;28;20065;-43
2024/02/25 01:30:38;;;;;;;4.60;2.40;;;16.00;87.00;;;;;;5071028;28;20020;-44
2024/02/25 01:33:04;;;;;;;3.58;2.28;;;16.00;87.80;;;;;;5070095;28;20025;-44
2024/02/25 01:35:30;;;;;;;3.90;2.15;;;16.00;87.00;;;;;;5071176;28;20025;-44
2024/02/25 01:37:56;;;;;;;3.05;2.13;;;16.00;87.00;;;;;;5070840;28;20027;-43
2024/02/25 01:40:21;;;;;;;3.55;2.33;;;16.00;87.00;;;;;;5070964;28;20048;-44
2024/02/25 01:43:04;;;;;;;3.83;2.00;;;16.00;87.00;;;;;;5071119;28;20107;-44
2024/02/25 01:45:30;;;;;;;2.95;1.92;;;16.00;86.90;;;;;;5071033;28;20035;-44
2024/02/25 01:47:56;;;;;;;3.50;2.20;;;16.00;87.00;;;;;;5070862;28;20037;-44
2024/02/25 01:50:23;;;;;;;3.20;2.30;;;15.90;86.90;;;;;;5070661;28;20033;-44
2024/02/25 01:52:53;;;;;;;3.55;2.40;;;15.90;86.90;;;;;;5070965;28;20509;-44
2024/02/25 01:55:23;;;;;;;4.03;2.28;;;15.90;86.90;;;;;;5071136;28;20051;-44
2024/02/25 01:57:49;;;;;;;3.10;2.25;;;15.80;86.90;;;;;;5070752;28;20016;-43
2024/02/25 02:00:16;;;;;;;4.28;2.42;;;15.70;86.90;;;;;;5070771;28;20082;-44
2024/02/25 02:02:42;;;;;;;4.57;2.30;;;15.70;87.00;;;;;;5071032;28;20074;-44
2024/02/25 02:05:11;;;;;;;3.28;2.30;;;15.60;87.00;;;;;;5070765;28;20449;-44
2024/02/25 02:07:40;;;;;;;3.22;2.03;;;15.60;87.20;;;;;;5070723;28;20029;-43
2024/02/25 02:10:09;;;;;;;2.05;1.70;;;15.50;87.30;;;;;;5071555;28;20386;-44
2024/02/25 02:12:42;;;;;;;3.75;2.08;;;15.40;87.40;;;;;;5075097;28;20099;-39
2024/02/25 02:15:08;;;;;;;3.17;2.20;;;15.30;87.60;;;;;;5074884;28;20522;-43
2024/02/25 02:17:34;;;;;;;2.72;2.00;;;15.20;87.70;;;;;;5074606;28;20506;-44
2024/02/25 02:20:00;;;;;;;4.78;2.20;;;15.10;87.80;;;;;;5074711;28;20021;-43
2024/02/25 02:22:26;;;;;;;2.25;1.75;;;15.10;88.00;;;;;;5074842;28;20032;-41
2024/02/25 02:24:52;;;;;;;3.03;2.05;;;15.00;88.20;;;;;;5074695;28;20040;-44
2024/02/25 02:27:18;;;;;;;2.05;1.60;;;14.90;89.10;;;;;;5074493;28;20115;-44
2024/02/25 02:29:44;;;;;;;2.90;1.98;;;14.80;88.50;;;;;;5074449;28;20656;-43
2024/02/25 02:32:09;;;;;;;3.42;1.80;;;14.70;88.70;;;;;;5074419;28;20029;-44
2024/02/25 02:34:35;;;;;;;2.58;1.95;;;14.70;89.00;;;;;;5074591;28;20100;-43
2024/02/25 02:37:01;;;;;;;2.95;1.85;;;14.60;89.20;;;;;;5072760;28;20021;-44
2024/02/25 02:39:27;;;;;;;3.78;2.08;;;14.50;89.40;;;;;;5074145;28;20039;-43
2024/02/25 02:41:53;;;;;;;2.75;1.75;;;14.40;89.60;;;;;;5074514;28;20032;-45
2024/02/25 02:44:18;;;;;;;2.72;1.70;;;14.30;89.80;;;;;;5074401;28;20028;-39
2024/02/25 02:46:44;;;;;;;2.25;1.80;;;14.30;90.00;;;;;;5074501;28;20073;-44
2024/02/25 02:49:10;;;;;;;3.17;2.15;;;14.20;90.10;;;;;;5074000;28;20425;-39
2024/02/25 02:51:37;;;;;;;3.15;1.70;;;14.10;90.10;;;;;;5074164;28;20029;-40
2024/02/25 02:54:02;;;;;;;2.35;1.65;;;14.00;90.30;;;;;;5072695;28;20031;-43
2024/02/25 02:56:31;;;;;;;4.07;1.90;;;14.00;90.40;;;;;;5074032;28;20016;-41
2024/02/25 02:58:57;;;;;;;2.92;1.80;;;13.90;90.50;;;;;;5073633;28;20028;-40
2024/02/25 03:01:23;;;;;;;2.17;1.75;;;13.90;90.50;;;;;;5073873;28;20029;-42
2024/02/25 03:03:49;;;;;;;2.65;1.98;;;13.80;90.60;;;;;;5074026;28;20016;-43
2024/02/25 03:06:17;;;;;;;2.83;1.77;;;13.80;90.70;;;;;;5073853;28;20031;-43
2024/02/25 03:08:42;;;;;;;2.03;1.55;;;13.70;90.70;;;;;;5073728;28;20051;-42
2024/02/25 03:11:08;;;;;;;3.25;1.88;;;13.60;90.80;;;;;;5073572;28;20367;-40
2024/02/25 03:13:34;;;;;;;2.00;1.52;;;13.60;91.00;;;;;;5073869;28;20387;-44
2024/02/25 03:16:00;;;;;;;3.55;1.70;;;13.50;91.10;;;;;;5073559;28;20497;-42
2024/02/25 03:18:26;;;;;;;3.35;1.70;;;13.50;91.20;;;;;;5073622;28;20086;-43
2024/02/25 03:20:52;;;;;;;2.80;1.90;;;13.40;91.20;;;;;;5073212;28;20028;-44
2024/02/25 03:23:18;;;;;;;4.10;1.85;;;13.40;91.30;;;;;;5073755;28;20032;-44
2024/02/25 03:25:43;;;;;;;2.03;1.48;;;13.30;91.40;;;;;;5073547;28;20019;-43
2024/02/25 03:28:09;;;;;;;3.03;2.03;;;13.30;91.50;;;;;;5073336;28;20036;-44
2024/02/25 03:30:35;;;;;;;3.28;1.80;;;13.20;91.60;;;;;;5073204;28;20036;-45
2024/02/25 03:33:01;;;;;;;2.97;1.77;;;13.10;91.60;;;;;;5073485;28;20414;-44
2024/02/25 03:35:30;;;;;;;2.50;1.80;;;13.10;91.70;;;;;;5073691;28;20112;-44
2024/02/25 03:37:56;;;;;;;2.42;1.45;;;13.10;91.80;;;;;;5073117;28;20025;-44
2024/02/25 03:40:22;;;;;;;2.90;1.80;;;13.00;91.80;;;;;;5073108;28;20556;-44
2024/02/25 03:42:48;;;;;;;2.55;1.67;;;12.90;91.90;;;;;;5073158;28;20028;-44
2024/02/25 03:45:15;;;;;;;2.22;1.73;;;12.90;92.00;;;;;;5073080;28;20027;-44
2024/02/25 03:47:41;;;;;;;2.53;1.77;;;12.90;92.10;;;;;;5072965;28;20039;-44
2024/02/25 03:50:09;;;;;;;2.10;1.70;;;12.80;92.10;;;;;;5072935;28;20033;-44
2024/02/25 03:52:35;;;;;;;3.88;1.75;;;12.80;92.20;;;;;;5073183;28;20028;-44
2024/02/25 03:55:00;;;;;;;3.47;1.98;;;12.70;92.30;;;;;;5073123;28;20036;-44
2024/02/25 03:57:26;;;;;;;2.95;1.60;;;12.70;92.30;;;;;;5073275;28;20028;-44
2024/02/25 03:59:51;;;;;;;4.07;1.58;;;12.70;92.40;;;;;;5072738;28;20024;-44
2024/02/25 04:02:17;;;;;;;2.58;1.48;;;12.60;92.50;;;;;;5073146;28;20489;-45
2024/02/25 04:04:46;;;;;;;2.50;1.88;;;12.60;92.50;;;;;;5072821;28;20036;-44
2024/02/25 04:07:12;;;;;;;2.95;1.80;;;12.50;92.60;;;;;;5072603;28;20016;-44
2024/02/25 04:09:39;;;;;;;2.70;1.80;;;12.50;92.70;;;;;;5072564;28;20047;-43
2024/02/25 04:12:06;;;;;;;2.38;1.52;;;12.50;92.70;;;;;;5072562;28;20394;-39
2024/02/25 04:14:31;;;;;;;3.88;1.50;;;12.40;92.70;;;;;;5072986;28;20025;-40
2024/02/25 04:16:57;;;;;;;2.67;1.85;;;12.40;92.80;;;;;;5072418;28;20478;-39
2024/02/25 04:19:23;;;;;;;1.95;1.35;;;12.30;92.80;;;;;;5072333;28;20090;-36
2024/02/25 04:21:49;;;;;;;2.22;1.52;;;12.30;92.90;;;;;;5072514;28;20028;-41
2024/02/25 04:24:14;;;;;;;3.45;1.70;;;12.30;93.00;;;;;;5072650;28;20081;-42
2024/02/25 04:26:44;;;;;;;2.58;1.73;;;12.30;93.00;;;;;;5072044;28;20100;-42
2024/02/25 04:29:10;;;;;;;3.28;1.60;;;12.20;93.10;;;;;;5072458;28;20036;-40
2024/02/25 04:31:48;;;;;;;2.53;1.63;;;12.20;93.10;;;;;;5072619;28;20032;-43
2024/02/25 04:34:15;;;;;;;2.83;1.73;;;12.10;93.20;;;;;;5071956;28;20067;-44
2024/02/25 04:36:40;;;;;;;2.30;1.63;;;12.20;93.30;;;;;;5072091;28;20021;-44
2024/02/25 04:39:09;;;;;;;2.83;1.50;;;12.10;93.30;;;;;;5072269;28;20024;-44
2024/02/25 04:41:34;;;;;;;2.47;1.55;;;12.10;93.30;;;;;;5072133;28;20479;-44
2024/02/25 04:44:00;;;;;;;2.05;1.52;;;12.10;93.40;;;;;;5072139;28;20040;-43
2024/02/25 04:46:26;;;;;;;1.98;1.35;;;12.00;93.40;;;;;;5071953;28;20037;-43
2024/02/25 04:48:51;;;;;;;1.83;1.38;;;12.00;93.40;;;;;;5071761;28;20024;-43
2024/02/25 04:51:18;;;;;;;2.60;1.50;;;11.90;93.50;;;;;;5071723;28;20024;-44
2024/02/25 04:53:44;;;;;;;2.47;1.55;;;11.90;93.50;;;;;;5071903;28;20017;-44
2024/02/25 04:56:09;;;;;;;3.22;1.80;;;11.90;93.60;;;;;;5071996;28;20103;-45
2024/02/25 04:58:35;;;;;;;2.70;1.40;;;11.90;93.90;;;;;;5071609;28;20024;-44
2024/02/25 05:01:01;;;;;;;1.92;1.50;;;11.80;93.60;;;;;;5071553;28;20507;-45
2024/02/25 05:03:27;;;;;;;3.00;1.73;;;11.80;93.70;;;;;;5071984;28;20039;-44
2024/02/25 05:05:52;;;;;;;2.20;1.70;;;11.80;93.70;;;;;;5071583;28;20039;-43
2024/02/25 05:08:18;;;;;;;2.50;1.55;;;11.70;94.00;;;;;;5071243;28;20029;-43
2024/02/25 05:10:43;;;;;;;1.73;1.50;;;11.80;93.80;;;;;;5071416;28;20032;-44
2024/02/25 05:13:09;;;;;;;3.30;1.50;;;11.70;93.80;;;;;;5071542;28;20163;-44
2024/02/25 05:15:35;;;;;;;3.13;1.50;;;11.70;94.20;;;;;;5071386;28;20020;-44
2024/02/25 05:18:01;;;;;;;2.30;1.50;;;11.70;93.90;;;;;;5071244;28;20032;-43
2024/02/25 05:20:27;;;;;;;2.63;1.38;;;11.70;93.90;;;;;;5071131;28;20490;-44
2024/02/25 05:22:54;;;;;;;2.60;1.58;;;11.70;94.00;;;;;;5071285;28;20040;-43
2024/02/25 05:25:20;;;;;;;3.15;1.48;;;11.60;94.00;;;;;;5071347;28;20473;-44
2024/02/25 05:27:46;;;;;;;2.47;1.50;;;11.60;94.00;;;;;;5071054;28;20085;-43
2024/02/25 05:30:12;;;;;;;1.75;1.10;;;11.60;94.10;;;;;;5071011;28;20031;-43
2024/02/25 05:32:38;;;;;;;2.15;1.63;;;11.60;94.10;;;;;;5071281;28;20025;-44
2024/02/25 05:35:06;;;;;;;2.30;1.30;;;11.50;94.10;;;;;;5071168;28;20319;-43
2024/02/25 05:37:34;;;;;;;2.42;1.40;;;11.50;94.10;;;;;;5070858;28;20434;-44
2024/02/25 05:40:00;;;;;;;2.17;1.40;;;11.50;94.20;;;;;;5071002;28;20036;-43
2024/02/25 05:42:26;;;;;;;2.63;1.48;;;11.50;94.20;;;;;;5071094;28;20020;-44
2024/02/25 05:44:53;;;;;;;1.98;1.40;;;11.50;94.20;;;;;;5070317;28;20108;-42
2024/02/25 05:47:22;;;;;;;1.70;1.25;;;11.50;94.30;;;;;;5070870;28;20105;-44
2024/02/25 05:49:48;;;;;;;2.20;1.40;;;11.40;94.30;;;;;;5070736;28;20028;-40
2024/02/25 05:52:13;;;;;;;2.20;1.40;;;11.40;94.30;;;;;;5070830;28;20032;-41
2024/02/25 05:54:39;;;;;;;2.33;1.30;;;11.40;94.30;;;;;;5071013;28;20029;-42
2024/02/25 05:57:04;;;;;;;2.42;1.40;;;11.30;94.30;;;;;;5070846;28;20024;-43
2024/02/25 05:59:31;;;;;;;1.92;1.33;;;11.30;94.40;;;;;;5070839;28;20025;-44
2024/02/25 06:01:57;;;;;;;2.17;1.27;;;11.40;94.50;;;;;;5071058;28;20442;-44
2024/02/25 06:04:22;;;;;;;2.30;1.50;;;11.30;94.40;;;;;;5071056;28;20029;-44
2024/02/25 06:06:52;;;;;;;2.03;1.30;;;11.30;94.50;;;;;;5070751;28;20517;-44
2024/02/25 06:09:18;;;;;;;2.42;1.30;;;11.30;94.50;;;;;;5070779;28;20066;-43
2024/02/25 06:11:44;;;;;;;2.17;1.33;;;11.30;94.50;;;;;;5070741;28;20036;-43
2024/02/25 06:14:09;;;;;;;1.75;1.30;;;11.30;94.60;;;;;;5070774;28;20067;-44
2024/02/25 06:16:35;;;;;;;3.33;1.60;;;11.20;94.60;;;;;;5070659;28;20479;-44
2024/02/25 06:19:01;;;;;;;1.85;1.17;;;11.20;94.70;;;;;;5070355;28;20052;-44
2024/02/25 06:21:27;;;;;;;1.52;1.20;;;11.20;94.70;;;;;;5070728;28;20039;-44
2024/02/25 06:23:52;;;;;;;1.30;0.90;;;11.20;94.80;;;;;;5070710;28;20028;-44
2024/02/25 06:26:18;;;;;;;2.30;1.20;;;11.20;94.80;;;;;;5070735;28;20474;-44
2024/02/25 06:28:44;;;;;;;1.92;1.20;;;11.20;94.80;;;;;;5070429;28;20070;-43
2024/02/25 06:31:10;;;;;;;1.63;1.00;;;11.20;94.90;;;;;;5070437;28;20387;-43
2024/02/25 06:33:36;;;;;;;1.48;1.05;;;11.30;94.90;;;;;;5070483;28;20486;-43
2024/02/25 06:36:02;;;;;;;1.92;1.08;;;11.20;95.30;;;;;;5070388;28;20043;-43
2024/02/25 06:38:27;;;;;;;2.03;1.35;;;11.20;95.00;;;;;;5070338;28;20062;-43
2024/02/25 06:40:53;;;;;;;1.55;1.10;;;11.30;95.40;;;;;;5070375;28;20025;-44
2024/02/25 06:43:18;;;;;;;1.17;0.93;;;11.30;95.20;;;;;;5069272;28;20048;-43
2024/02/25 06:45:44;;;;;;;2.42;1.20;;;11.30;95.20;;;;;;5070430;28;20032;-44
2024/02/25 06:48:10;;;;;;;1.83;1.00;;;11.40;95.20;;;;;;5070159;28;20024;-44
2024/02/25 06:50:35;;;;;;;1.30;0.90;;;11.40;95.20;;;;;;5070069;28;20029;-43
2024/02/25 06:53:01;;;;;;;1.92;1.13;;;11.50;95.20;;;;;;5070634;28;20021;-44
2024/02/25 06:55:27;;;;;;;1.92;1.05;;;11.50;95.10;;;;;;5070312;28;20470;-43
2024/02/25 06:57:52;;;;;;;1.40;1.02;;;11.60;95.10;;;;;;5072397;28;20040;-43
2024/02/25 07:00:18;;;;;;;1.48;1.05;;;11.70;95.00;;;;;;5073866;28;20382;-44
2024/02/25 07:02:44;;;;;;;1.50;1.10;;;11.80;94.90;;;;;;5073976;28;20032;-43
2024/02/25 07:05:10;;;;;;;1.30;1.00;;;11.90;94.90;;;;;;5073812;28;20024;-44
2024/02/25 07:07:38;;;;;;;1.60;1.08;;;12.00;94.80;;;;;;5073766;28;20070;-43
2024/02/25 07:10:05;;;;;;;1.33;1.10;;;12.10;95.00;;;;;;5073888;28;20390;-44
2024/02/25 07:12:31;;;;;;;1.42;1.02;;;12.10;94.60;;;;;;5073959;28;20112;-44
2024/02/25 07:14:57;;;;;;;1.80;1.00;;;12.20;94.50;;;;;;5073810;28;20107;-43
2024/02/25 07:17:22;;;;;;;1.20;0.90;;;12.30;94.50;;;;;;5073508;28;20086;-43
2024/02/25 07:19:48;;;;;;;1.23;0.95;;;12.40;94.40;;;;;;5073486;28;20066;-43
2024/02/25 07:22:14;;;;;;;2.40;0.98;;;12.50;94.20;;;;;;5073784;28;20442;-43
2024/02/25 07:24:40;;;;;;;1.60;1.00;;;12.60;94.20;;;;;;5073805;28;20031;-43
2024/02/25 07:27:07;;;;;;;1.50;0.90;;;12.70;94.00;;;;;;5073574;28;20029;-43
2024/02/25 07:29:33;;;;;;;1.70;1.17;;;12.80;93.90;;;;;;5073617;28;20028;-43
2024/02/25 07:31:58;;;;;;;1.70;1.13;;;12.80;93.80;;;;;;5073409;28;20027;-43
2024/02/25 07:34:24;;;;;;;1.60;1.00;;;12.90;93.80;;;;;;5074025;28;20016;-44
2024/02/25 07:36:50;;;;;;;1.08;0.80;;;13.00;93.70;;;;;;5073407;28;20476;-43
2024/02/25 07:39:16;;;;;;;2.15;1.15;;;13.10;93.60;;;;;;5073555;28;20543;-43
2024/02/25 07:41:43;;;;;;;1.50;1.00;;;13.10;93.50;;;;;;5072052;28;20031;-43
2024/02/25 07:44:10;;;;;;;1.63;1.00;;;13.20;93.30;;;;;;5073318;28;20078;-43
2024/02/25 07:46:36;;;;;;;1.75;1.00;;;13.30;93.20;;;;;;5073160;28;20098;-43
2024/02/25 07:49:02;;;;;;;1.52;0.80;;;13.40;93.10;;;;;;5072833;28;20421;-43
2024/02/25 07:51:33;;;;;;;1.13;0.90;;;13.50;93.00;;;;;;5073139;28;20099;-43
2024/02/25 07:53:59;;;;;;;1.38;0.88;;;13.50;92.90;;;;;;5073242;28;20104;-43
2024/02/25 07:56:27;;;;;;;1.15;0.90;;;13.60;92.80;;;;;;5073110;28;20104;-38
2024/02/25 07:58:52;;;;;;;1.42;0.90;;;13.60;92.70;;;;;;5073027;28;20025;-41
2024/02/25 08:01:18;;;;;;;1.40;0.70;;;13.70;92.60;;;;;;5072714;28;20024;-40
2024/02/25 08:03:43;;;;;;;1.67;0.80;;;13.80;92.50;;;;;;5073073;28;20426;-39
2024/02/25 08:06:09;;;;;;;1.65;0.73;;;13.80;92.30;;;;;;5073024;28;20056;-40
2024/02/25 08:08:35;;;;;;;1.02;0.77;;;13.90;92.30;;;;;;5072091;28;20437;-41
2024/02/25 08:11:01;;;;;;;1.25;0.90;;;14.00;92.20;;;;;;5072777;28;20025;-40
2024/02/25 08:13:26;;;;;;;1.13;0.82;;;14.00;92.10;;;;;;5072966;28;20476;-40
2024/02/25 08:15:52;;;;;;;1.08;0.75;;;14.00;92.00;;;;;;5072614;28;20063;-42
2024/02/25 08:18:17;;;;;;;1.40;0.90;;;14.10;91.90;;;;;;5072706;28;20028;-43
2024/02/25 08:20:43;;;;;;;1.33;0.80;;;14.20;91.80;;;;;;5072509;28;20425;-40
2024/02/25 08:23:08;;;;;;;1.45;0.70;;;14.20;91.70;;;;;;5072675;28;20060;-40
2024/02/25 08:25:34;;;;;;;1.17;0.80;;;14.30;91.70;;;;;;5072516;28;20505;-43
2024/02/25 08:28:00;;;;;;;1.80;1.00;;;14.30;91.60;;;;;;5072204;28;20040;-36
2024/02/25 08:30:26;;;;;;;1.20;0.80;;;14.40;91.50;;;;;;5072091;28;20482;-40
2024/02/25 08:32:52;;;;;;;1.00;0.80;;;14.40;91.50;;;;;;5072738;28;20048;-36
2024/02/25 08:35:18;;;;;;;2.22;0.75;;;14.40;91.40;;;;;;5072316;28;20427;-42
2024/02/25 08:37:44;;;;;;;1.02;0.65;;;14.50;91.40;;;;;;5070789;28;20024;-43
2024/02/25 08:40:10;;;;;;;1.45;0.90;;;14.50;91.30;;;;;;5071987;28;20471;-44
2024/02/25 08:42:35;;;;;;;1.42;0.90;;;14.50;91.20;;;;;;5072175;28;20034;-44
2024/02/25 08:45:01;;;;;;;1.52;0.75;;;14.60;91.20;;;;;;5071816;28;20048;-43
2024/02/25 08:47:27;;;;;;;2.10;0.90;;;14.60;91.10;;;;;;5071724;28;20028;-42
2024/02/25 08:49:53;;;;;;;1.10;0.80;;;14.70;91.10;;;;;;5071632;28;20391;-44
2024/02/25 08:52:19;;;;;;;0.70;0.60;;;14.70;91.00;;;;;;5071954;28;20029;-44
2024/02/25 08:54:45;;;;;;;0.90;0.60;;;14.70;91.00;;;;;;5071954;28;20029;-44
2024/02/25 08:57:12;;;;;;;1.20;0.80;;;14.70;90.90;;;;;;5072187;28;20060;-44
2024/02/25 08:59:37;;;;;;;1.60;0.95;;;14.80;90.90;;;;;;5071458;28;20016;-44
2024/02/25 09:02:07;;;;;;;1.13;0.80;;;14.80;90.90;;;;;;5070498;28;20044;-44
2024/02/25 09:04:33;;;;;;;1.05;0.80;;;14.80;91.20;;;;;;5071919;28;20086;-44
2024/02/25 09:07:00;;;;;;;0.80;0.60;;;14.90;90.80;;;;;;5071578;28;20037;-44
2024/02/25 09:09:29;;;;;;;1.10;0.73;;;15.00;90.80;;;;;;5071554;28;20028;-45
2024/02/25 09:11:55;;;;;;;1.25;0.77;;;15.00;90.80;;;;;;5071773;28;20035;-44
2024/02/25 09:14:20;;;;;;;1.65;0.80;;;15.10;90.70;;;;;;5071425;28;20103;-41
2024/02/25 09:16:46;;;;;;;1.50;0.73;;;15.10;90.70;;;;;;5071309;28;20085;-44
2024/02/25 09:19:12;;;;;;;0.88;0.80;;;15.20;90.70;;;;;;5070447;28;20423;-42
2024/02/25 09:21:38;;;;;;;1.55;0.93;;;15.20;90.60;;;;;;5071321;28;20486;-42
2024/02/25 09:24:04;;;;;;;0.73;0.60;;;15.30;90.60;;;;;;5071451;28;20040;-41
2024/02/25 09:26:30;;;;;;;1.70;0.77;;;15.30;90.50;;;;;;5071579;28;20028;-43
2024/02/25 09:28:56;;;;;;;1.13;0.63;;;15.40;90.50;;;;;;5070792;28;20453;-43
2024/02/25 09:31:21;;;;;;;1.10;0.85;;;15.50;90.50;;;;;;5071266;28;20048;-41
2024/02/25 09:33:52;;;;;;;0.68;0.50;;;15.50;90.40;;;;;;5071154;28;20482;-41
2024/02/25 09:36:23;;;;;;;0.82;0.60;;;15.60;90.30;;;;;;5071137;28;20029;-44
2024/02/25 09:38:49;;;;;;;0.82;0.63;;;15.60;90.60;;;;;;5071086;28;20549;-44
2024/02/25 09:41:25;;;;;;;0.88;0.65;;;15.70;90.20;;;;;;5071080;28;20126;-44
2024/02/25 09:43:51;;;;;;;1.50;0.75;;;15.80;90.10;;;;;;5071060;28;20518;-44
2024/02/25 09:46:18;;;;;;;0.82;0.60;;;15.80;90.40;;;;;;5070974;28;20035;-44
2024/02/25 09:48:52;;;;;;;0.77;0.73;;;15.90;90.00;;;;;;5070848;28;20077;-44
2024/02/25 09:51:22;;;;;;;0.93;0.70;;;16.00;90.00;;;;;;5070949;28;20331;-44
2024/02/25 09:53:50;;;;;;;1.05;0.68;;;16.00;89.90;;;;;;5070999;28;20029;-44
2024/02/25 09:56:16;;;;;;;1.05;0.63;;;16.10;89.80;;;;;;5070903;28;20016;-44
2024/02/25 09:58:42;;;;;;;1.15;0.77;;;16.20;89.60;;;;;;5070651;28;20027;-44
2024/02/25 10:01:08;;;;;;;1.10;0.77;;;16.30;89.50;;;;;;5070792;28;20663;-44
2024/02/25 10:03:35;;;;;;;0.80;0.60;;;16.30;89.30;;;;;;5071149;28;20032;-44
2024/02/25 10:06:00;;;;;;;1.00;0.60;;;16.40;89.20;;;;;;5070879;28;20055;-44
2024/02/25 10:08:26;;;;;;;0.98;0.68;;;16.50;89.10;;;;;;5070817;28;20454;-45
2024/02/25 10:10:52;;;;;;;0.98;0.60;;;16.60;89.10;;;;;;5070712;28;20039;-44
2024/02/25 10:13:18;;;;;;;1.02;0.68;;;16.70;89.20;;;;;;5070743;28;20046;-44
2024/02/25 10:15:44;;;;;;;0.93;0.68;;;16.70;89.30;;;;;;5070794;28;20386;-45
2024/02/25 10:18:11;;;;;;;1.40;0.47;;;16.80;89.60;;;;;;5070682;28;20040;-45
2024/02/25 10:20:37;;;;;;;1.10;0.70;;;16.90;90.00;;;;;;5070740;28;20025;-45
2024/02/25 10:23:09;;;;;;;0.90;0.60;;;17.00;89.90;;;;;;5069432;28;20064;-44
2024/02/25 10:25:37;;;;;;;0.90;0.70;;;17.10;89.60;;;;;;5070839;28;20024;-42
2024/02/25 10:28:14;;;;;;;1.65;0.60;;;17.40;87.70;;;;;;5070235;28;20044;-41
2024/02/25 10:30:56;;;;;;;1.08;0.70;;;17.80;86.70;;;;;;5070562;28;20066;-45
2024/02/25 10:33:21;;;;;;;0.55;0.50;;;18.20;85.60;;;;;;5074775;28;20021;-45
2024/02/25 10:35:47;;;;;;;0.70;0.40;;;18.90;85.30;;;;;;5074638;28;20074;-43
2024/02/25 10:38:15;;;;;;;1.10;0.68;;;19.10;85.30;;;;;;5074304;28;20433;-45
2024/02/25 10:40:43;;;;;;;1.40;0.60;;;19.00;84.90;;;;;;5074447;28;20029;-42
2024/02/25 10:43:12;;;;;;;0.55;0.50;;;19.00;84.60;;;;;;5074590;28;20025;-44
2024/02/25 10:45:41;;;;;;;0.73;0.50;;;19.10;84.40;;;;;;5074723;28;20076;-41
2024/02/25 10:48:10;;;;;;;0.60;0.50;;;19.10;84.20;;;;;;5074301;28;20111;-42
2024/02/25 10:50:36;;;;;;;0.65;0.50;;;19.10;84.80;;;;;;5074094;28;20031;-39
2024/02/25 10:53:04;;;;;;;1.17;0.50;;;19.20;83.70;;;;;;5074118;28;20525;-42
2024/02/25 10:55:30;;;;;;;1.77;0.50;;;19.30;83.50;;;;;;5074133;28;20024;-44
2024/02/25 10:57:58;;;;;;;0.90;0.60;;;19.30;83.10;;;;;;5073942;28;20024;-44
2024/02/25 11:00:24;;;;;;;0.63;0.47;;;19.40;82.80;;;;;;5073834;28;20020;-44
2024/02/25 11:02:50;;;;;;;0.57;0.45;;;19.50;82.60;;;;;;5074070;28;20027;-44
2024/02/25 11:05:17;;;;;;;0.93;0.57;;;19.60;82.30;;;;;;5073905;28;20025;-45
2024/02/25 11:07:43;;;;;;;0.70;0.50;;;19.60;82.00;;;;;;5073745;28;20502;-44
2024/02/25 11:10:21;;;;;;;0.60;0.50;;;19.70;81.90;;;;;;5073757;28;20024;-45
2024/02/25 11:12:51;;;;;;;0.60;0.50;;;19.80;81.90;;;;;;5073868;28;20052;-44
2024/02/25 11:15:21;;;;;;;0.82;0.50;;;19.80;82.70;;;;;;5073833;28;20027;-43
2024/02/25 11:17:50;;;;;;;0.65;0.38;;;19.90;82.20;;;;;;5073581;28;20494;-45
2024/02/25 11:20:25;;;;;;;0.70;0.52;;;19.90;81.60;;;;;;5073588;28;20028;-45
2024/02/25 11:22:51;;;;;;;0.60;0.50;;;20.10;81.00;;;;;;5073755;28;20374;-44
2024/02/25 11:25:26;;;;;;;0.73;0.52;;;20.20;80.70;;;;;;5073678;28;20027;-44
2024/02/25 11:27:59;;;;;;;1.10;0.47;;;20.30;80.40;;;;;;5073349;28;20029;-44
2024/02/25 11:30:45;;;;;;;1.03;0.60;;;20.40;80.80;;;;;;5073249;28;20078;-44
2024/02/25 11:33:42;;;;;;;1.42;0.50;;;20.50;79.80;;;;;;5073632;28;20051;-44
2024/02/25 11:36:13;;;;;;;0.50;0.40;;;20.60;79.90;;;;;;5074543;28;20815;-44
2024/02/25 11:38:47;;;;;;;0.65;0.45;;;20.70;80.10;;;;;;5073237;28;20021;-44
2024/02/25 11:41:13;;;;;;;1.05;0.50;;;20.70;79.40;;;;;;5073389;28;20234;-44
2024/02/25 11:43:39;;;;;;;0.75;0.40;;;20.80;79.00;;;;;;5072034;28;20060;-44
2024/02/25 11:46:08;;;;;;;0.60;0.30;;;21.00;78.70;;;;;;5073197;28;20059;-44
2024/02/25 11:48:35;;;;;;;0.80;0.40;;;21.10;78.50;;;;;;5073048;28;20051;-44
2024/02/25 11:51:02;;;;;;;0.60;0.50;;;21.10;78.20;;;;;;5073406;28;20363;-44
2024/02/25 11:53:28;;;;;;;0.40;0.35;;;21.20;77.90;;;;;;5073168;28;20527;-44
2024/02/25 11:55:53;;;;;;;0.77;0.40;;;21.30;78.10;;;;;;5073105;28;20032;-44
2024/02/25 11:58:20;;;;;;;1.15;0.60;;;21.30;78.20;;;;;;5073142;28;20462;-44
2024/02/25 12:00:47;;;;;;;1.23;0.40;;;21.30;77.80;;;;;;5073006;28;20029;-43
2024/02/25 12:03:12;;;;;;;0.40;0.40;;;21.40;77.50;;;;;;5073031;28;20035;-44
2024/02/25 12:05:38;;;;;;;0.65;0.40;;;21.50;77.20;;;;;;5072841;28;20028;-42
2024/02/25 12:08:04;;;;;;;0.50;0.40;;;21.60;76.90;;;;;;5072818;28;20024;-44
2024/02/25 12:10:30;;;;;;;0.52;0.30;;;21.60;76.90;;;;;;5072910;28;20032;-43
2024/02/25 12:12:56;;;;;;;0.52;0.32;;;21.70;77.50;;;;;;5072734;28;20063;-44
2024/02/25 12:15:27;;;;;;;0.77;0.50;;;21.80;76.60;;;;;;5072598;28;20093;-44
2024/02/25 12:17:53;;;;;;;0.47;0.30;;;21.80;76.30;;;;;;5072506;28;20048;-45
2024/02/25 12:20:19;;;;;;;1.33;0.55;;;21.90;76.20;;;;;;5072478;28;20125;-45
2024/02/25 12:22:45;;;;;;;1.42;0.40;;;22.00;76.00;;;;;;5072716;28;20615;-45
2024/02/25 12:25:18;;;;;;;0.60;0.35;;;22.00;75.90;;;;;;5072589;28;20379;-45
2024/02/25 12:27:45;;;;;;;0.90;0.50;;;22.00;75.60;;;;;;5072183;28;20033;-44
2024/02/25 12:30:12;;;;;;;0.60;0.38;;;22.10;75.40;;;;;;5072224;28;20028;-44
2024/02/25 12:32:38;;;;;;;0.40;0.40;;;22.20;75.30;;;;;;5072306;28;20474;-42
2024/02/25 12:35:06;;;;;;;0.57;0.40;;;22.20;75.10;;;;;;5072234;28;20035;-41
2024/02/25 12:37:31;;;;;;;0.60;0.50;;;22.20;75.00;;;;;;5071951;28;20491;-41
2024/02/25 12:39:57;;;;;;;0.80;0.43;;;22.30;74.90;;;;;;5071907;28;20107;-44
2024/02/25 12:42:26;;;;;;;1.58;0.50;;;22.30;74.80;;;;;;5072211;28;20066;-42
2024/02/25 12:44:51;;;;;;;1.15;0.50;;;22.40;74.80;;;;;;5072173;28;20070;-44